createdAt,value
2022-12-13T00:01:20.179Z,3.40
2022-12-13T00:03:47.051Z,3.50
2022-12-13T00:06:14.799Z,3.40
2022-12-13T00:08:41.974Z,3.40
2022-12-13T00:11:12.330Z,3.50
2022-12-13T00:13:40.224Z,3.50
2022-12-13T00:16:10.901Z,3.40
2022-12-13T00:18:38.357Z,3.50
2022-12-13T00:21:12.828Z,3.40
2022-12-13T00:23:39.623Z,3.40
2022-12-13T00:26:10.237Z,3.50
2022-12-13T00:28:37.632Z,3.40
2022-12-13T00:31:27.371Z,3.40
2022-12-13T00:33:52.091Z,3.40
2022-12-13T00:36:19.160Z,3.40
2022-12-13T00:38:46.191Z,3.30
2022-12-13T00:41:18.455Z,3.30
2022-12-13T00:43:46.179Z,3.30
2022-12-13T00:46:18.366Z,3.30
2022-12-13T00:48:49.619Z,3.30
2022-12-13T00:51:16.845Z,3.30
2022-12-13T00:53:44.641Z,3.30
2022-12-13T00:56:23.614Z,3.30
2022-12-13T00:58:52.269Z,3.30
2022-12-13T01:01:25.023Z,3.30
2022-12-13T01:03:54.389Z,3.30
2022-12-13T01:06:25.555Z,3.30
2022-12-13T01:08:52.384Z,3.30
2022-12-13T01:11:19.705Z,3.30
2022-12-13T01:13:46.626Z,3.40
2022-12-13T01:16:14.029Z,3.40
2022-12-13T01:18:41.895Z,3.40
2022-12-13T01:21:15.201Z,3.40
2022-12-13T01:23:43.115Z,3.40
2022-12-13T01:26:15.830Z,3.50
2022-12-13T01:28:43.325Z,3.40
2022-12-13T01:31:16.878Z,3.50
2022-12-13T01:33:44.310Z,3.40
2022-12-13T01:36:15.045Z,3.50
2022-12-13T01:38:42.251Z,3.40
2022-12-13T01:41:17.554Z,3.50
2022-12-13T01:43:48.005Z,3.50
2022-12-13T01:46:16.487Z,3.50
2022-12-13T01:49:19.983Z,3.50
2022-12-13T01:51:55.990Z,3.50
2022-12-13T01:54:36.171Z,3.50
2022-12-13T01:57:05.926Z,3.50
2022-12-13T01:59:35.632Z,3.50
2022-12-13T02:02:13.742Z,3.40
2022-12-13T02:05:00.823Z,3.40
2022-12-13T02:07:31.121Z,3.40
2022-12-13T02:10:01.290Z,3.40
2022-12-13T02:12:31.573Z,3.40
2022-12-13T02:15:05.475Z,3.40
2022-12-13T02:17:47.724Z,3.40
2022-12-13T02:20:21.505Z,3.40
2022-12-13T02:22:55.064Z,3.40
2022-12-13T02:25:48.137Z,3.40
2022-12-13T02:28:49.402Z,3.50
2022-12-13T02:31:32.557Z,3.40
2022-12-13T02:34:05.865Z,3.40
2022-12-13T02:37:20.293Z,3.50
2022-12-13T02:40:11.429Z,3.40
2022-12-13T02:43:09.665Z,3.40
2022-12-13T02:45:49.111Z,3.40
2022-12-13T02:48:26.226Z,3.30
2022-12-13T02:50:54.488Z,3.30
2022-12-13T02:53:23.072Z,3.30
2022-12-13T02:55:49.980Z,3.30
2022-12-13T02:58:22.202Z,3.40
2022-12-13T03:01:28.978Z,3.40
2022-12-13T03:04:09.998Z,3.50
2022-12-13T03:06:45.362Z,3.50
2022-12-13T03:09:17.600Z,3.50
2022-12-13T03:12:18.241Z,3.50
2022-12-13T03:14:56.293Z,3.50
2022-12-13T03:17:25.102Z,3.50
2022-12-13T03:19:53.569Z,3.60
2022-12-13T03:22:20.652Z,3.60
2022-12-13T03:24:47.539Z,3.60
2022-12-13T03:27:14.396Z,3.60
2022-12-13T03:29:41.169Z,3.60
2022-12-13T03:32:07.986Z,3.60
2022-12-13T03:34:43.650Z,3.60
2022-12-13T03:37:12.541Z,3.60
2022-12-13T03:39:39.550Z,3.60
2022-12-13T03:42:06.438Z,3.60
2022-12-13T03:44:33.215Z,3.60
2022-12-13T03:47:00.628Z,3.50
2022-12-13T03:49:35.198Z,3.60
2022-12-13T03:52:02.751Z,3.60
2022-12-13T03:54:29.527Z,3.60
2022-12-13T03:56:56.306Z,3.60
2022-12-13T03:59:23.063Z,3.50
2022-12-13T04:01:49.957Z,3.50
2022-12-13T04:04:16.764Z,3.50
2022-12-13T04:06:43.636Z,3.50
2022-12-13T04:09:10.460Z,3.50
2022-12-13T04:12:03.384Z,3.50
2022-12-13T04:14:30.161Z,3.50
2022-12-13T04:16:56.979Z,3.50
2022-12-13T04:19:24.296Z,3.50
2022-12-13T04:21:54.398Z,3.50
2022-12-13T04:24:22.645Z,3.50
2022-12-13T04:26:59.636Z,3.50
2022-12-13T04:29:34.518Z,3.50
2022-12-13T04:32:02.964Z,3.50
2022-12-13T04:34:35.048Z,3.50
2022-12-13T04:37:03.892Z,3.50
2022-12-13T04:39:34.232Z,3.50
2022-12-13T04:42:01.523Z,3.50
2022-12-13T04:44:32.553Z,3.50
2022-12-13T04:47:03.566Z,3.50
2022-12-13T04:49:30.862Z,3.50
2022-12-13T04:52:01.255Z,3.50
2022-12-13T04:54:36.049Z,3.50
2022-12-13T04:57:05.269Z,3.50
2022-12-13T04:59:32.041Z,3.40
2022-12-13T05:01:58.974Z,3.40
2022-12-13T05:04:32.098Z,3.40
2022-12-13T05:06:59.837Z,3.40
2022-12-13T05:09:26.674Z,3.40
2022-12-13T05:11:53.502Z,3.40
2022-12-13T05:14:30.380Z,3.40
2022-12-13T05:16:57.328Z,3.40
2022-12-13T05:19:30.940Z,3.40
2022-12-13T05:22:01.432Z,3.40
2022-12-13T05:24:31.122Z,3.40
2022-12-13T05:26:58.928Z,3.40
2022-12-13T05:29:27.576Z,3.40
2022-12-13T05:31:54.589Z,3.40
2022-12-13T05:34:21.425Z,3.40
2022-12-13T05:36:48.224Z,3.40
2022-12-13T05:39:29.442Z,3.40
2022-12-13T05:42:01.810Z,3.40
2022-12-13T05:44:30.500Z,3.40
2022-12-13T05:46:57.290Z,3.40
2022-12-13T05:49:24.077Z,3.30
2022-12-13T05:51:51.019Z,3.40
2022-12-13T05:54:17.864Z,3.40
2022-12-13T05:56:44.803Z,3.30
2022-12-13T05:59:11.589Z,3.20
2022-12-13T06:01:43.611Z,3.20
2022-12-13T06:04:11.852Z,3.10
2022-12-13T06:06:38.755Z,3.10
2022-12-13T06:09:05.892Z,3.20
2022-12-13T06:11:32.775Z,3.10
2022-12-13T06:14:00.610Z,3.10
2022-12-13T06:16:28.336Z,3.20
2022-12-13T06:19:03.274Z,3.20
2022-12-13T06:21:41.447Z,3.10
2022-12-13T06:24:13.547Z,3.00
2022-12-13T06:26:40.373Z,3.00
2022-12-13T06:29:07.164Z,3.00
2022-12-13T06:31:33.959Z,3.00
2022-12-13T06:34:13.690Z,3.00
2022-12-13T06:36:42.334Z,3.10
2022-12-13T06:39:09.251Z,3.10
2022-12-13T06:41:36.988Z,3.10
2022-12-13T06:44:05.055Z,3.00
2022-12-13T06:46:32.269Z,3.10
2022-12-13T06:48:59.185Z,3.10
2022-12-13T06:51:33.041Z,3.00
2022-12-13T06:54:01.570Z,3.00
2022-12-13T06:56:28.904Z,3.10
2022-12-13T06:59:01.259Z,3.10
2022-12-13T07:01:36.613Z,3.00
2022-12-13T07:04:05.875Z,3.00
2022-12-13T07:06:52.751Z,3.00
2022-12-13T07:09:19.616Z,3.00
2022-12-13T07:11:51.714Z,3.00
2022-12-13T07:14:19.584Z,2.90
2022-12-13T07:16:46.457Z,2.90
2022-12-13T07:19:23.109Z,2.80
2022-12-13T07:21:51.863Z,2.90
2022-12-13T07:24:19.064Z,2.90
2022-12-13T07:26:46.905Z,2.80
2022-12-13T07:29:13.711Z,2.80
2022-12-13T07:31:49.873Z,2.90
2022-12-13T07:34:16.842Z,2.90
2022-12-13T07:36:43.632Z,2.90
2022-12-13T07:39:10.513Z,2.90
2022-12-13T07:41:37.423Z,2.90
2022-12-13T07:44:05.258Z,2.90
2022-12-13T07:46:33.764Z,2.90
2022-12-13T07:49:04.984Z,2.90
2022-12-13T07:51:34.268Z,2.90
2022-12-13T07:54:01.243Z,2.90
2022-12-13T07:56:33.874Z,2.90
2022-12-13T07:59:00.642Z,2.90
2022-12-13T08:01:27.674Z,3.00
2022-12-13T08:03:54.525Z,2.90
2022-12-13T08:06:21.293Z,2.90
2022-12-13T08:08:51.108Z,2.80
2022-12-13T08:11:18.199Z,2.80
2022-12-13T08:13:45.067Z,2.80
2022-12-13T08:16:28.262Z,2.80
2022-12-13T08:19:02.191Z,2.80
2022-12-13T08:21:58.401Z,2.80
2022-12-13T08:24:29.593Z,2.90
2022-12-13T08:27:01.471Z,2.90
2022-12-13T08:29:35.022Z,2.90
2022-12-13T08:32:10.956Z,2.90
2022-12-13T08:34:37.963Z,2.90
2022-12-13T08:37:05.483Z,2.80
2022-12-13T08:39:35.777Z,2.80
2022-12-13T08:42:16.567Z,2.80
2022-12-13T08:44:50.106Z,2.80
2022-12-13T08:47:23.985Z,2.80
2022-12-13T08:50:04.075Z,2.90
2022-12-13T08:52:40.193Z,2.90
2022-12-13T08:55:12.855Z,2.90
2022-12-13T08:57:41.092Z,2.90
2022-12-13T09:00:11.609Z,2.90
2022-12-13T09:02:39.081Z,2.90
2022-12-13T09:05:07.889Z,2.90
2022-12-13T09:07:41.001Z,2.90
2022-12-13T09:10:26.425Z,2.90
2022-12-13T09:13:01.562Z,2.90
2022-12-13T09:15:33.732Z,2.90
2022-12-13T09:18:05.173Z,2.90
2022-12-13T09:20:33.070Z,2.90
2022-12-13T09:23:13.939Z,2.80
2022-12-13T09:26:04.942Z,2.80
2022-12-13T09:28:34.945Z,2.80
2022-12-13T09:31:02.088Z,2.70
2022-12-13T09:33:30.516Z,2.70
2022-12-13T09:35:58.072Z,2.80
2022-12-13T09:38:28.074Z,2.80
2022-12-13T09:40:59.172Z,2.80
2022-12-13T09:43:33.098Z,2.80
2022-12-13T09:46:13.310Z,2.80
2022-12-13T09:49:01.141Z,2.80
2022-12-13T09:51:42.995Z,2.80
2022-12-13T09:54:23.038Z,2.90
2022-12-13T09:56:51.493Z,2.90
2022-12-13T09:59:37.343Z,2.90
2022-12-13T10:02:17.852Z,2.90
2022-12-13T10:04:45.429Z,2.80
2022-12-13T10:07:23.729Z,2.80
2022-12-13T10:09:58.930Z,2.80
2022-12-13T10:12:25.956Z,2.90
2022-12-13T10:14:59.512Z,2.80
2022-12-13T10:17:31.907Z,2.80
2022-12-13T10:20:06.414Z,2.80
2022-12-13T10:22:33.186Z,2.90
2022-12-13T10:25:05.919Z,2.90
2022-12-13T10:27:35.456Z,2.90
2022-12-13T10:30:08.731Z,2.90
2022-12-13T10:32:48.219Z,3.00
2022-12-13T10:35:24.668Z,3.00
2022-12-13T10:37:52.017Z,3.00
2022-12-13T10:40:48.939Z,3.00
2022-12-13T10:43:21.420Z,3.00
2022-12-13T10:46:00.657Z,3.00
2022-12-13T10:48:40.799Z,3.00
2022-12-13T10:51:09.253Z,3.00
2022-12-13T10:53:48.076Z,3.00
2022-12-13T10:56:22.635Z,3.00
2022-12-13T10:59:16.576Z,3.00
2022-12-13T11:01:44.699Z,3.10
2022-12-13T11:04:33.628Z,3.10
2022-12-13T11:07:20.711Z,3.10
2022-12-13T11:09:52.607Z,3.00
2022-12-13T11:12:27.530Z,3.00
2022-12-13T11:15:04.223Z,3.10
2022-12-13T11:17:36.490Z,3.10
2022-12-13T11:20:08.128Z,3.10
2022-12-13T11:22:37.987Z,3.10
2022-12-13T11:25:23.008Z,3.10
2022-12-13T11:27:49.734Z,3.10
2022-12-13T11:30:24.897Z,3.10
2022-12-13T11:33:16.380Z,3.10
2022-12-13T11:36:12.701Z,3.10
2022-12-13T11:39:16.599Z,3.10
2022-12-13T11:42:13.049Z,3.10
2022-12-13T11:45:02.056Z,3.10
2022-12-13T11:48:01.986Z,3.00
2022-12-13T11:50:37.101Z,3.00
2022-12-13T11:53:12.517Z,3.00
2022-12-13T11:55:48.710Z,3.00
2022-12-13T11:58:45.835Z,3.00
2022-12-13T12:01:22.153Z,3.00
2022-12-13T12:04:06.925Z,3.00
2022-12-13T12:06:40.797Z,3.00
2022-12-13T12:09:15.319Z,3.00
2022-12-13T12:11:54.297Z,3.00
2022-12-13T12:14:48.371Z,3.00
2022-12-13T12:17:23.496Z,3.00
2022-12-13T12:19:54.391Z,3.00
2022-12-13T12:22:43.641Z,3.00
2022-12-13T12:25:45.899Z,3.00
2022-12-13T12:28:29.661Z,3.00
2022-12-13T12:31:24.813Z,2.90
2022-12-13T12:34:18.875Z,2.90
2022-12-13T12:37:14.498Z,2.90
2022-12-13T12:39:57.889Z,2.80
2022-12-13T12:43:03.701Z,2.70
2022-12-13T12:48:57.076Z,2.70
2022-12-13T12:51:54.954Z,2.70
2022-12-13T12:54:47.808Z,2.70
2022-12-13T12:57:14.522Z,2.60
2022-12-13T13:00:09.684Z,2.60
2022-12-13T13:03:02.295Z,2.60
2022-12-13T13:05:42.998Z,2.70
2022-12-13T13:08:36.099Z,2.70
2022-12-13T13:11:04.554Z,2.60
2022-12-13T13:13:46.088Z,2.60
2022-12-13T13:16:36.478Z,2.60
2022-12-13T13:19:25.598Z,2.60
2022-12-13T13:22:01.366Z,2.60
2022-12-13T13:24:31.550Z,2.60
2022-12-13T13:27:29.425Z,2.60
2022-12-13T13:30:06.848Z,2.60
2022-12-13T13:32:39.840Z,2.50
2022-12-13T13:35:34.075Z,2.60
2022-12-13T13:38:06.003Z,2.50
2022-12-13T13:40:39.276Z,2.50
2022-12-13T13:43:08.839Z,2.50
2022-12-13T13:45:54.314Z,2.50
2022-12-13T13:48:27.177Z,2.50
2022-12-13T13:51:11.815Z,2.50
2022-12-13T13:54:10.580Z,2.40
2022-12-13T13:56:51.927Z,2.40
2022-12-13T13:59:40.771Z,2.40
2022-12-13T14:02:25.519Z,2.40
2022-12-13T14:05:19.926Z,2.40
2022-12-13T14:08:20.916Z,2.40
2022-12-13T14:10:47.718Z,2.30
2022-12-13T14:13:47.926Z,2.30
2022-12-13T14:16:20.829Z,2.30
2022-12-13T14:19:20.465Z,2.30
2022-12-13T14:22:05.830Z,2.20
2022-12-13T14:24:54.884Z,2.20
2022-12-13T14:27:46.693Z,2.20
2022-12-13T14:30:29.021Z,2.10
2022-12-13T14:32:57.138Z,2.10
2022-12-13T14:35:31.035Z,2.10
2022-12-13T14:38:03.018Z,2.10
2022-12-13T14:40:36.813Z,2.10
2022-12-13T14:43:04.049Z,2.10
2022-12-13T14:45:36.624Z,2.10
2022-12-13T14:48:14.346Z,2.00
2022-12-13T14:50:44.780Z,2.00
2022-12-13T14:53:25.757Z,1.90
2022-12-13T14:56:28.389Z,1.90
2022-12-13T14:59:11.493Z,1.90
2022-12-13T15:01:39.194Z,1.80
2022-12-13T15:04:21.207Z,1.80
2022-12-13T15:06:57.217Z,1.90
2022-12-13T15:09:25.073Z,1.90
2022-12-13T15:12:02.894Z,1.90
2022-12-13T15:14:58.544Z,1.90
2022-12-13T15:17:40.001Z,1.90
2022-12-13T15:20:28.539Z,2.00
2022-12-13T15:23:21.389Z,2.00
2022-12-13T15:25:55.687Z,2.00
2022-12-13T15:28:22.748Z,2.10
2022-12-13T15:30:50.800Z,2.00
2022-12-13T15:33:32.627Z,2.10
2022-12-13T15:36:19.352Z,2.00
2022-12-13T15:39:01.449Z,2.00
2022-12-13T15:41:41.696Z,2.00
2022-12-13T15:44:20.619Z,2.00
2022-12-13T15:46:49.984Z,2.00
2022-12-13T15:49:37.828Z,2.00
2022-12-13T15:52:23.146Z,2.00
2022-12-13T15:55:01.894Z,2.00
2022-12-13T15:57:35.057Z,2.00
2022-12-13T16:00:20.032Z,1.90
2022-12-13T16:03:08.548Z,1.90
2022-12-13T16:05:40.286Z,1.80
2022-12-13T16:08:15.954Z,1.80
2022-12-13T16:10:50.205Z,1.70
2022-12-13T16:13:25.866Z,1.70
2022-12-13T16:16:09.628Z,1.70
2022-12-13T16:18:54.954Z,1.70
2022-12-13T16:21:21.770Z,1.70
2022-12-13T16:23:49.257Z,1.70
2022-12-13T16:26:22.249Z,1.70
2022-12-13T16:28:49.139Z,1.70
2022-12-13T16:31:25.577Z,1.70
2022-12-13T16:33:52.720Z,1.70
2022-12-13T16:36:19.971Z,1.70
2022-12-13T16:38:46.831Z,1.70
2022-12-13T16:41:14.808Z,1.70
2022-12-13T16:43:49.830Z,1.70
2022-12-13T16:47:14.383Z,1.70
2022-12-13T16:49:27.886Z,1.70
2022-12-13T16:51:55.690Z,1.70
2022-12-13T16:54:25.147Z,1.70
2022-12-13T16:56:53.772Z,1.70
2022-12-13T16:59:23.406Z,1.70
2022-12-13T17:01:51.114Z,1.70
2022-12-13T17:04:21.449Z,1.70
2022-12-13T17:06:54.827Z,1.70
2022-12-13T17:09:23.268Z,1.70
2022-12-13T17:11:50.144Z,1.70
2022-12-13T17:14:16.960Z,1.70
2022-12-13T17:16:43.962Z,1.80
2022-12-13T17:19:12.300Z,1.80
2022-12-13T17:21:39.058Z,1.70
2022-12-13T17:24:06.097Z,1.70
2022-12-13T17:26:32.900Z,1.70
2022-12-13T17:28:59.675Z,1.60
2022-12-13T17:31:31.794Z,1.60
2022-12-13T17:34:02.893Z,1.60
2022-12-13T17:36:31.518Z,1.60
2022-12-13T17:38:58.611Z,1.60
2022-12-13T17:41:25.571Z,1.70
2022-12-13T17:43:52.502Z,1.70
2022-12-13T17:46:19.429Z,1.70
2022-12-13T17:48:46.704Z,1.70
2022-12-13T17:51:14.671Z,1.70
2022-12-13T17:53:43.594Z,1.70
2022-12-13T17:56:13.533Z,1.80
2022-12-13T17:58:40.391Z,1.80
2022-12-13T18:01:14.892Z,1.80
2022-12-13T18:03:42.115Z,1.70
2022-12-13T18:06:09.261Z,1.80
2022-12-13T18:08:38.903Z,1.80
2022-12-13T18:13:54.722Z,1.80
2022-12-13T18:16:26.666Z,1.80
2022-12-13T18:18:57.115Z,1.80
2022-12-13T18:21:25.453Z,1.70
2022-12-13T18:23:54.930Z,1.70
2022-12-13T18:26:23.893Z,1.70
2022-12-13T18:28:51.289Z,1.70
2022-12-13T18:31:22.218Z,1.60
2022-12-13T18:33:50.456Z,1.70
2022-12-13T18:36:17.510Z,1.70
2022-12-13T18:38:44.616Z,1.70
2022-12-13T18:41:15.009Z,1.70
2022-12-13T18:43:42.985Z,1.70
2022-12-13T18:46:11.823Z,1.60
2022-12-13T18:48:38.936Z,1.60
2022-12-13T18:51:07.749Z,1.60
2022-12-13T18:53:35.513Z,1.60
2022-12-13T18:56:12.845Z,1.60
2022-12-13T18:58:44.975Z,1.60
2022-12-13T19:01:12.898Z,1.60
2022-12-13T19:03:40.428Z,1.60
2022-12-13T19:06:07.760Z,1.60
2022-12-13T19:08:36.477Z,1.50
2022-12-13T19:11:04.322Z,1.50
2022-12-13T19:13:32.794Z,1.50
2022-12-13T19:16:07.535Z,1.50
2022-12-13T19:18:35.418Z,1.50
2022-12-13T19:21:02.346Z,1.50
2022-12-13T19:23:29.830Z,1.50
2022-12-13T19:25:56.850Z,1.50
2022-12-13T19:28:23.775Z,1.50
2022-12-13T19:30:50.678Z,1.50
2022-12-13T19:33:18.406Z,1.50
2022-12-13T19:35:46.935Z,1.50
2022-12-13T19:38:13.796Z,1.50
2022-12-13T19:40:42.141Z,1.50
2022-12-13T19:43:10.109Z,1.50
2022-12-13T19:45:36.919Z,1.50
2022-12-13T19:48:03.857Z,1.50
2022-12-13T19:50:30.755Z,1.40
2022-12-13T19:52:57.624Z,1.40
2022-12-13T19:55:24.427Z,1.40
2022-12-13T19:57:51.356Z,1.40
2022-12-13T20:00:18.202Z,1.40
2022-12-13T20:02:45.111Z,1.40
2022-12-13T20:05:12.470Z,1.30
2022-12-13T20:07:39.279Z,1.30
2022-12-13T20:10:06.790Z,1.30
2022-12-13T20:12:38.903Z,1.20
2022-12-13T20:15:08.339Z,1.10
2022-12-13T20:17:35.683Z,1.00
2022-12-13T20:20:03.870Z,1.00
2022-12-13T20:22:31.746Z,1.00
2022-12-13T20:24:58.666Z,1.00
2022-12-13T20:27:26.067Z,0.90
2022-12-13T20:29:53.555Z,0.90
2022-12-13T20:32:21.324Z,0.90
2022-12-13T20:34:53.229Z,0.80
2022-12-13T20:37:22.249Z,0.80
2022-12-13T20:39:49.254Z,0.80
2022-12-13T20:42:16.305Z,0.80
2022-12-13T20:44:43.083Z,0.70
2022-12-13T20:47:09.914Z,0.60
2022-12-13T20:49:36.783Z,0.60
2022-12-13T20:52:03.603Z,0.60
2022-12-13T20:54:30.508Z,0.60
2022-12-13T20:56:57.410Z,0.60
2022-12-13T20:59:24.230Z,0.60
2022-12-13T21:01:51.171Z,0.60
2022-12-13T21:04:18.456Z,0.50
2022-12-13T21:06:45.226Z,0.50
2022-12-13T21:09:12.172Z,0.50
2022-12-13T21:11:47.418Z,0.40
2022-12-13T21:14:21.858Z,0.40
2022-12-13T21:16:57.987Z,0.40
2022-12-13T21:19:34.462Z,0.40
2022-12-13T21:22:04.585Z,0.40
2022-12-13T21:24:31.436Z,0.40
2022-12-13T21:26:58.436Z,0.30
2022-12-13T21:29:25.549Z,0.30
2022-12-13T21:31:53.456Z,0.30
2022-12-13T21:34:22.198Z,0.30
2022-12-13T21:36:52.294Z,0.30
2022-12-13T21:39:23.209Z,0.30
2022-12-13T21:41:50.813Z,0.20
2022-12-13T21:44:18.234Z,0.20
2022-12-13T21:49:32.200Z,0.20
2022-12-13T21:51:58.987Z,0.20
2022-12-13T21:54:25.794Z,0.20
2022-12-13T21:57:11.115Z,0.20
2022-12-13T21:59:37.971Z,0.10
2022-12-13T22:02:20.144Z,0.10
2022-12-13T22:04:51.523Z,0.10
2022-12-13T22:07:21.459Z,0.00
2022-12-13T22:09:48.950Z,0.00
2022-12-13T22:12:29.322Z,0.00
2022-12-13T22:14:56.189Z,0.00
2022-12-13T22:17:29.754Z,0.00
2022-12-13T22:20:02.192Z,-0.10
2022-12-13T22:22:29.322Z,-0.10
2022-12-13T22:24:56.320Z,-0.10
2022-12-13T22:27:26.224Z,-0.10
2022-12-13T22:29:56.868Z,-0.10
2022-12-13T22:32:29.205Z,-0.10
2022-12-13T22:34:56.509Z,-0.10
2022-12-13T22:37:23.585Z,-0.20
2022-12-13T22:39:50.367Z,-0.20
2022-12-13T22:42:17.148Z,-0.20
2022-12-13T22:44:44.084Z,-0.20
2022-12-13T22:47:10.929Z,-0.20
2022-12-13T22:49:37.699Z,-0.30
2022-12-13T22:52:05.284Z,-0.30
2022-12-13T22:54:32.122Z,-0.30
2022-12-13T22:56:58.971Z,-0.30
2022-12-13T22:59:26.002Z,-0.30
2022-12-13T23:02:01.404Z,-0.40
2022-12-13T23:04:29.347Z,-0.40
2022-12-13T23:06:56.187Z,-0.50
2022-12-13T23:09:23.205Z,-0.50
2022-12-13T23:12:08.629Z,-0.50
2022-12-13T23:14:35.577Z,-0.50
2022-12-13T23:17:03.357Z,-0.60
2022-12-13T23:19:50.128Z,-0.60
2022-12-13T23:22:17.389Z,-0.60
2022-12-13T23:24:44.217Z,-0.60
2022-12-13T23:27:11.007Z,-0.60
2022-12-13T23:29:37.921Z,-0.60
2022-12-13T23:32:05.836Z,-0.60
2022-12-13T23:34:32.748Z,-0.60
2022-12-13T23:36:59.602Z,-0.60
2022-12-13T23:39:26.506Z,-0.70
2022-12-13T23:41:53.249Z,-0.70
2022-12-13T23:44:20.043Z,-0.70
2022-12-13T23:46:48.893Z,-0.80
2022-12-13T23:49:16.681Z,-0.70
2022-12-13T23:51:43.577Z,-0.80
2022-12-13T23:54:16.358Z,-0.70
2022-12-13T23:56:43.710Z,-0.70
2022-12-13T23:59:11.249Z,-0.80
